Time;durP1;ratioP1;P1;durP2;ratioP2;P2;SDS_P1;SDS_P2;PMS_P1;PMS_P2;Temp;Humidity;BMP_temperature;BMP_pressure;BME280_temperature;BME280_humidity;BME280_pressure;Samples;Min_cycle;Max_cycle;Signal;HPM_P1;HPM_P2
2022/11/11 00:02:36;;;;;;;6.65;2.10;;;12.40;99.90;;;;;;6187474;23;20059;-87
2022/11/11 00:05:45;;;;;;;15.20;2.15;;;12.30;99.90;;;;;;6214748;23;20078;-87
2022/11/11 00:08:50;;;;;;;11.85;3.30;;;12.30;99.90;;;;;;6215285;23;20351;-86
2022/11/11 00:11:45;;;;;;;10.30;2.97;;;12.30;99.90;;;;;;6215522;23;20020;-86
2022/11/11 00:15:06;;;;;;;6.47;2.50;;;12.70;99.90;;;;;;6215301;23;20028;-87
2022/11/11 00:25:42;;;;;;;10.95;3.40;;;12.20;99.90;;;;;;6215308;23;20035;-87
2022/11/11 00:29:16;;;;;;;;;;;;;;;;;;;;;
2022/11/11 00:32:52;;;;;;;;;;;;;;;;;;;;;
2022/11/11 00:36:18;;;;;;;8.48;2.78;;;12.10;99.90;;;;;;6138177;23;20027;-88
2022/11/11 00:39:50;;;;;;;7.30;3.20;;;12.10;99.90;;;;;;6215215;23;20458;-88
2022/11/11 00:43:20;;;;;;;10.10;3.72;;;11.90;99.90;;;;;;6215358;23;20025;-87
2022/11/11 00:53:34;;;;;;;;;;;;;;;;;;;;;
2022/11/11 00:57:04;;;;;;;;;;;;;;;;;;;;;
2022/11/11 01:00:34;;;;;;;;;;;;;;;;;;;;;
2022/11/11 01:03:54;;;;;;;;;;;;;;;;;;;;;
2022/11/11 01:07:12;;;;;;;;;;;;;;;;;;;;;
2022/11/11 01:14:23;;;;;;;;;;;;;;;;;;;;;
2022/11/11 01:17:44;;;;;;;;;;;;;;;;;;;;;
2022/11/11 01:20:58;;;;;;;;;;;;;;;;;;;;;
2022/11/11 01:24:27;;;;;;;;;;;;;;;;;;;;;
2022/11/11 01:27:50;;;;;;;9.23;3.72;;;12.00;99.90;;;;;;6215281;23;20025;-89
2022/11/11 01:31:04;;;;;;;;;;;;;;;;;;;;;
2022/11/11 01:34:28;;;;;;;;;;;;;;;;;;;;;
2022/11/11 01:37:45;;;;;;;8.75;3.75;;;11.70;99.90;;;;;;6137898;23;20017;-86
2022/11/11 01:44:50;;;;;;;;;;;;;;;;;;;;;
2022/11/11 01:51:40;;;;;;;;;;;;;;;;;;;;;
2022/11/11 01:55:06;;;;;;;7.05;3.58;;;12.00;99.90;;;;;;6186182;23;20105;-86
2022/11/11 01:58:45;;;;;;;7.90;3.63;;;12.10;99.90;;;;;;6214919;23;20028;-86
2022/11/11 02:02:20;;;;;;;7.38;4.03;;;12.00;99.90;;;;;;6214606;23;20359;-87
2022/11/11 02:05:44;;;;;;;9.73;4.13;;;12.00;99.90;;;;;;6214637;23;20020;-87
2022/11/11 02:08:41;;;;;;;;;;;12.10;99.90;;;;;;6214235;23;20027;-88
2022/11/11 02:15:28;;;;;;;;;;;;;;;;;;;;;
2022/11/11 02:19:02;;;;;;;13.25;4.07;;;12.00;99.90;;;;;;6187582;23;20063;-87
2022/11/11 02:22:42;;;;;;;;;;;;;;;;;;;;;
2022/11/11 02:25:50;;;;;;;9.88;3.75;;;12.00;99.90;;;;;;6216374;23;20028;-88
2022/11/11 02:28:51;;;;;;;15.38;4.30;;;12.00;99.90;;;;;;6139287;23;20028;-89
2022/11/11 02:32:24;;;;;;;;;;;;;;;;;;;;;
2022/11/11 02:35:42;;;;;;;12.77;4.30;;;12.00;99.90;;;;;;6163568;23;20320;-87
2022/11/11 02:39:08;;;;;;;19.38;4.97;;;12.00;99.90;;;;;;6216286;23;20412;-88
2022/11/11 02:42:46;;;;;;;;;;;;;;;;;;;;;
2022/11/11 02:45:56;;;;;;;10.93;4.00;;;12.00;99.90;;;;;;6163917;23;20020;-87
2022/11/11 02:49:30;;;;;;;10.30;4.43;;;12.00;99.90;;;;;;6216274;23;20036;-88
2022/11/11 02:52:52;;;;;;;12.23;4.22;;;12.60;99.90;;;;;;6215980;23;20052;-88
2022/11/11 02:55:58;;;;;;;7.13;4.10;;;12.00;99.90;;;;;;6215994;23;20051;-87
2022/11/11 02:59:23;;;;;;;;;;;;;;;;;;;;;
2022/11/11 03:03:00;;;;;;;10.90;3.95;;;11.90;99.90;;;;;;6215690;23;20056;-87
2022/11/11 03:06:30;;;;;;;;;;;;;;;;;;;;;
2022/11/11 03:09:25;;;;;;;9.48;5.13;;;11.90;99.90;;;;;;6162716;23;20020;-88
2022/11/11 03:12:36;;;;;;;9.77;4.20;;;12.00;99.90;;;;;;6210894;23;20020;-87
2022/11/11 03:16:03;;;;;;;8.93;5.03;;;12.00;99.90;;;;;;6215774;23;20092;-86
2022/11/11 03:19:26;;;;;;;11.27;4.78;;;12.00;99.90;;;;;;6189121;23;20025;-87
2022/11/11 03:22:25;;;;;;;11.82;5.07;;;11.90;99.90;;;;;;6215751;23;20355;-87
2022/11/11 03:28:50;;;;;;;12.18;5.85;;;11.80;99.90;;;;;;6215699;23;20448;-88
2022/11/11 03:32:18;;;;;;;;;;;;;;;;;;;;;
2022/11/11 03:35:46;;;;;;;10.60;5.70;;;11.80;99.90;;;;;;6138494;23;20051;-86
2022/11/11 03:39:08;;;;;;;16.00;6.82;;;11.50;99.90;;;;;;6215109;23;20028;-87
2022/11/11 03:42:33;;;;;;;;;;;;;;;;;;;;;
2022/11/11 03:46:08;;;;;;;;;;;;;;;;;;;;;
2022/11/11 03:49:15;;;;;;;15.43;7.25;;;11.60;99.90;;;;;;6214887;23;20017;-86
2022/11/11 03:52:50;;;;;;;;;;;;;;;;;;;;;
2022/11/11 03:56:10;;;;;;;;;;;;;;;;;;;;;
2022/11/11 03:59:40;;;;;;;16.85;7.60;;;11.60;99.90;;;;;;6215364;23;20375;-87
2022/11/11 04:17:16;;;;;;;13.30;7.20;;;11.50;99.90;;;;;;6214851;23;20025;-88
2022/11/11 04:27:23;;;;;;;15.00;6.97;;;11.50;99.90;;;;;;6215207;23;20029;-87
2022/11/11 04:30:24;;;;;;;14.38;8.30;;;11.40;99.90;;;;;;6214837;23;20012;-88
2022/11/11 04:33:35;;;;;;;;;;;;;;;;;;;;;
2022/11/11 04:37:06;;;;;;;;;;;;;;;;;;;;;
2022/11/11 04:46:57;;;;;;;17.48;9.23;;;11.40;99.90;;;;;;6185935;23;20035;-88
2022/11/11 04:50:07;;;;;;;17.42;8.70;;;11.40;99.90;;;;;;6215092;23;20508;-87
2022/11/11 04:53:24;;;;;;;15.13;7.85;;;11.40;99.90;;;;;;6215086;23;20024;-87
2022/11/11 04:57:00;;;;;;;;;;;;;;;;;;;;;
2022/11/11 04:59:53;;;;;;;18.67;9.75;;;11.40;99.90;;;;;;6214702;23;20355;-87
2022/11/11 05:10:09;;;;;;;;;;;;;;;;;;;;;
2022/11/11 05:27:27;;;;;;;;;;;;;;;;;;;;;
2022/11/11 05:30:50;;;;;;;;;;;;;;;;;;;;;
2022/11/11 05:34:06;;;;;;;;;;;;;;;;;;;;;
2022/11/11 05:37:30;;;;;;;;;;;;;;;;;;;;;
2022/11/11 05:40:36;;;;;;;;;;;;;;;;;;;;;
2022/11/11 05:44:07;;;;;;;;;;;;;;;;;;;;;
2022/11/11 05:47:29;;;;;;;16.88;9.02;;;11.20;99.90;;;;;;6137809;23;20030;-87
2022/11/11 05:51:06;;;;;;;;;;;;;;;;;;;;;
2022/11/11 05:54:27;;;;;;;22.45;10.32;;;11.30;99.90;;;;;;6214694;23;20051;-87
2022/11/11 05:57:59;;;;;;;;;;;;;;;;;;;;;
2022/11/11 06:01:30;;;;;;;;;;;;;;;;;;;;;
2022/11/11 06:04:34;;;;;;;;;;;11.30;99.90;;;;;;6188279;23;20052;-87
2022/11/11 06:08:04;;;;;;;;;;;;;;;;;;;;;
2022/11/11 06:11:34;;;;;;;;;;;;;;;;;;;;;
2022/11/11 06:14:46;;;;;;;15.25;7.93;;;11.10;99.90;;;;;;6138783;23;20027;-87
2022/11/11 06:18:20;;;;;;;;;;;;;;;;;;;;;
2022/11/11 06:26:11;;;;;;;16.00;8.75;;;11.70;99.90;;;;;;6216370;23;20107;-86
2022/11/11 06:28:50;;;;;;;20.00;9.18;;;11.10;99.90;;;;;;6216100;23;20486;-88
2022/11/11 06:32:08;;;;;;;;;;;;;;;;;;;;;
2022/11/11 06:35:28;;;;;;;16.92;8.18;;;11.00;99.90;;;;;;6164067;23;20027;-87
2022/11/11 06:38:52;;;;;;;17.83;8.30;;;11.00;99.90;;;;;;6216070;23;20155;-87
2022/11/11 06:42:26;;;;;;;;;;;;;;;;;;;;;
2022/11/11 06:45:27;;;;;;;15.25;8.00;;;11.10;99.90;;;;;;6215976;23;20030;-87
2022/11/11 06:49:02;;;;;;;20.48;8.63;;;11.20;99.90;;;;;;6116513;23;20016;-88
2022/11/11 06:52:25;;;;;;;15.52;7.53;;;11.20;99.90;;;;;;6216632;23;20021;-87
2022/11/11 06:56:23;;;;;;;15.57;8.18;;;11.30;99.90;;;;;;6215790;23;20020;-89
2022/11/11 07:02:48;;;;;;;;;;;;;;;;;;;;;
2022/11/11 07:10:44;;;;;;;;;;;;;;;;;;;;;
2022/11/11 07:22:33;;;;;;;22.02;9.88;;;11.40;99.90;;;;;;6201965;22;20028;-85
2022/11/11 07:25:15;;;;;;;22.42;9.75;;;11.40;99.90;;;;;;6214050;23;20436;-87
2022/11/11 07:39:17;;;;;;;18.85;9.07;;;11.40;99.90;;;;;;6216076;23;20112;-86
2022/11/11 07:42:18;;;;;;;16.45;8.45;;;11.50;99.90;;;;;;6189231;23;20043;-87
2022/11/11 07:45:20;;;;;;;20.67;9.45;;;11.40;99.90;;;;;;6215815;23;20055;-88
2022/11/11 07:48:25;;;;;;;19.50;9.63;;;11.50;99.90;;;;;;6185002;23;20088;-87
2022/11/11 07:51:30;;;;;;;;;;;;;;;;;;;;;
2022/11/11 07:54:49;;;;;;;20.25;8.90;;;11.40;99.90;;;;;;6216149;23;20029;-87
2022/11/11 08:01:58;;;;;;;19.30;9.82;;;11.40;99.90;;;;;;6217049;23;20066;-87
2022/11/11 08:05:16;;;;;;;22.63;11.15;;;11.40;99.90;;;;;;6216176;23;20076;-84
2022/11/11 08:08:04;;;;;;;21.08;10.23;;;11.40;99.90;;;;;;6183171;23;20419;-86
2022/11/11 08:11:02;;;;;;;22.25;10.48;;;11.40;99.90;;;;;;6213979;23;20086;-85
2022/11/11 08:14:16;;;;;;;25.75;10.80;;;11.50;99.90;;;;;;6166607;23;20017;-85
2022/11/11 08:17:27;;;;;;;;;;;11.50;99.90;;;;;;6216397;23;20024;-85
2022/11/11 08:20:28;;;;;;;23.75;10.52;;;11.50;99.90;;;;;;6215650;23;19915;-85
2022/11/11 08:23:21;;;;;;;26.58;10.60;;;11.50;99.90;;;;;;6158092;23;20025;-83
2022/11/11 08:26:17;;;;;;;20.05;9.77;;;12.10;99.90;;;;;;6182288;23;20028;-85
2022/11/11 08:29:23;;;;;;;18.85;9.20;;;11.60;99.90;;;;;;6185214;23;20399;-87
2022/11/11 08:32:17;;;;;;;17.45;9.13;;;11.50;99.90;;;;;;6185689;23;20025;-87
2022/11/11 08:35:28;;;;;;;;;;;;;;;;;;;;;
2022/11/11 08:38:23;;;;;;;20.35;9.20;;;11.60;99.90;;;;;;6185917;23;20024;-84
2022/11/11 08:41:30;;;;;;;;;;;;;;;;;;;;;
2022/11/11 08:45:02;;;;;;;23.30;10.13;;;11.60;99.90;;;;;;6185624;23;20031;-85
2022/11/11 08:48:12;;;;;;;17.50;8.38;;;11.50;99.90;;;;;;6185636;23;20447;-85
2022/11/11 08:51:18;;;;;;;26.65;11.20;;;11.60;99.90;;;;;;6174768;23;20016;-85
2022/11/11 08:54:36;;;;;;;16.58;8.25;;;11.20;99.90;;;;;;6184899;23;20052;-86
2022/11/11 08:57:46;;;;;;;19.80;10.40;;;11.60;99.90;;;;;;6181264;23;20013;-88
2022/11/11 09:01:00;;;;;;;;;;;;;;;;;;;;;
2022/11/11 09:04:09;;;;;;;;;;;;;;;;;;;;;
2022/11/11 09:07:31;;;;;;;19.27;9.75;;;11.60;99.90;;;;;;6185515;23;20100;-86
2022/11/11 09:10:34;;;;;;;24.50;11.07;;;11.60;99.90;;;;;;6183007;23;20028;-86
2022/11/11 09:13:37;;;;;;;23.27;10.25;;;11.60;99.90;;;;;;6185340;23;20020;-87
2022/11/11 09:16:51;;;;;;;;;;;;;;;;;;;;;
2022/11/11 09:20:00;;;;;;;24.10;9.65;;;11.60;99.90;;;;;;6183606;23;20104;-85
2022/11/11 09:23:26;;;;;;;;;;;;;;;;;;;;;
2022/11/11 09:26:58;;;;;;;25.42;10.65;;;11.60;99.90;;;;;;6185281;23;20036;-86
2022/11/11 09:30:01;;;;;;;15.93;8.68;;;11.60;99.90;;;;;;6184903;23;20021;-85
2022/11/11 09:33:18;;;;;;;;;;;;;;;;;;;;;
2022/11/11 09:36:49;;;;;;;18.92;9.05;;;11.60;99.90;;;;;;6187319;23;20083;-85
2022/11/11 09:39:58;;;;;;;;;;;;;;;;;;;;;
2022/11/11 09:43:18;;;;;;;19.17;10.18;;;11.60;99.90;;;;;;6187370;23;20025;-87
2022/11/11 09:46:37;;;;;;;19.98;10.32;;;11.50;99.90;;;;;;6186083;23;20057;-87
2022/11/11 09:50:16;;;;;;;24.20;10.43;;;11.70;99.90;;;;;;6187370;23;20360;-86
2022/11/11 09:53:50;;;;;;;22.10;9.50;;;11.60;99.90;;;;;;6067555;23;20101;-86
2022/11/11 09:57:07;;;;;;;19.85;9.80;;;11.60;99.90;;;;;;6067291;23;20151;-85
2022/11/11 10:00:19;;;;;;;15.25;9.10;;;11.60;99.90;;;;;;6067495;23;20058;-87
2022/11/11 10:03:42;;;;;;;19.92;9.63;;;11.50;99.90;;;;;;6067635;23;20132;-88
2022/11/11 10:06:49;;;;;;;16.30;9.27;;;11.50;99.90;;;;;;6042664;23;20023;-87
2022/11/11 10:10:01;;;;;;;16.17;8.48;;;11.50;99.90;;;;;;6066900;23;20354;-86
2022/11/11 10:13:03;;;;;;;;;;;;;;;;;;;;;
2022/11/11 10:16:26;;;;;;;19.60;9.02;;;11.60;99.90;;;;;;6069197;23;20015;-85
2022/11/11 10:19:32;;;;;;;21.00;9.35;;;11.50;99.90;;;;;;6044024;23;20106;-85
2022/11/11 10:22:50;;;;;;;19.23;8.75;;;11.50;99.90;;;;;;5995946;23;20022;-86
2022/11/11 10:26:26;;;;;;;16.85;8.57;;;11.50;99.90;;;;;;6088468;23;20020;-87
2022/11/11 10:29:48;;;;;;;22.60;8.95;;;11.40;99.90;;;;;;6216978;23;20459;-87
2022/11/11 10:33:08;;;;;;;16.55;7.88;;;11.50;99.90;;;;;;6213520;23;20039;-86
2022/11/11 10:36:18;;;;;;;;;;;;;;;;;;;;;
2022/11/11 10:39:46;;;;;;;19.65;9.07;;;11.40;99.90;;;;;;6216862;23;20333;-86
2022/11/11 10:42:58;;;;;;;;;;;;;;;;;;;;;
2022/11/11 10:46:12;;;;;;;17.52;8.68;;;11.50;99.90;;;;;;6214764;23;20071;-89
2022/11/11 10:49:32;;;;;;;;;;;;;;;;;;;;;
2022/11/11 10:52:32;;;;;;;15.57;8.00;;;11.40;99.90;;;;;;6164555;23;20020;-90
2022/11/11 10:55:45;;;;;;;;;;;;;;;;;;;;;
2022/11/11 10:59:18;;;;;;;16.75;8.23;;;11.50;99.90;;;;;;6217273;23;20021;-90
2022/11/11 11:02:58;;;;;;;;;;;;;;;;;;;;;
2022/11/11 11:06:11;;;;;;;18.58;8.85;;;11.60;99.90;;;;;;6064998;23;20023;-86
2022/11/11 11:09:00;;;;;;;16.00;7.95;;;11.60;99.90;;;;;;6018514;23;20045;-88
2022/11/11 11:12:02;;;;;;;21.70;9.80;;;11.60;99.90;;;;;;6043379;23;20060;-91
2022/11/11 11:15:30;;;;;;;16.15;7.95;;;11.60;99.90;;;;;;6066565;23;20654;-89
2022/11/11 11:18:45;;;;;;;19.40;8.65;;;11.60;99.90;;;;;;6069628;23;20027;-91
2022/11/11 11:21:50;;;;;;;19.92;8.50;;;11.70;99.90;;;;;;6066939;23;20427;-87
2022/11/11 11:25:23;;;;;;;;;;;;;;;;;;;;;
2022/11/11 11:28:41;;;;;;;;;;;;;;;;;;;;;
2022/11/11 11:32:10;;;;;;;16.38;8.13;;;11.70;99.90;;;;;;6068322;23;20030;-90
2022/11/11 11:35:17;;;;;;;23.23;9.25;;;11.80;99.90;;;;;;6075246;23;20019;-88
2022/11/11 11:38:15;;;;;;;14.30;7.10;;;11.80;99.90;;;;;;6183372;23;20071;-92
2022/11/11 11:41:22;;;;;;;20.67;8.80;;;11.80;99.90;;;;;;6134554;23;20013;-91
2022/11/11 11:45:02;;;;;;;14.30;7.93;;;11.90;99.90;;;;;;6185968;23;20021;-89
2022/11/11 11:48:10;;;;;;;16.58;8.30;;;11.60;99.90;;;;;;6185187;23;20076;-86
2022/11/11 11:51:38;;;;;;;21.70;8.68;;;11.80;99.90;;;;;;6185643;23;20324;-88
2022/11/11 11:54:46;;;;;;;13.25;7.97;;;11.80;99.90;;;;;;6123262;23;20014;-88
2022/11/11 11:57:39;;;;;;;12.95;7.07;;;11.80;99.90;;;;;;6122994;23;20022;-91
2022/11/11 12:00:46;;;;;;;14.27;7.55;;;11.90;99.90;;;;;;6123501;23;20021;-89
2022/11/11 12:04:06;;;;;;;12.65;6.88;;;11.90;99.90;;;;;;6123983;23;20062;-92
2022/11/11 12:07:28;;;;;;;;;;;;;;;;;;;;;
2022/11/11 12:10:33;;;;;;;13.32;7.22;;;11.80;99.90;;;;;;6051360;23;20052;-92
2022/11/11 12:13:57;;;;;;;11.50;6.65;;;11.90;99.90;;;;;;6124363;23;20022;-91
2022/11/11 12:17:17;;;;;;;14.48;7.28;;;11.90;99.90;;;;;;6123418;23;20480;-92
2022/11/11 12:20:29;;;;;;;;;;;;;;;;;;;;;
2022/11/11 12:23:26;;;;;;;18.50;7.30;;;11.90;99.90;;;;;;6123389;23;20357;-86
2022/11/11 12:26:40;;;;;;;;;;;;;;;;;;;;;
2022/11/11 12:30:16;;;;;;;;;;;;;;;;;;;;;
2022/11/11 12:33:37;;;;;;;17.10;6.97;;;11.90;99.90;;;;;;6185064;23;20356;-92
2022/11/11 12:36:47;;;;;;;15.02;6.78;;;11.90;99.90;;;;;;6182574;23;20036;-93
2022/11/11 12:40:21;;;;;;;12.40;6.28;;;11.80;99.90;;;;;;6185089;23;20028;-90
2022/11/11 12:43:11;;;;;;;;;;;;;;;;;;;;;
2022/11/11 12:46:24;;;;;;;12.85;6.30;;;11.90;99.90;;;;;;6186020;23;20080;-90
2022/11/11 12:49:48;;;;;;;12.45;5.60;;;11.80;99.90;;;;;;6183666;23;20399;-89
2022/11/11 12:53:08;;;;;;;;;;;;;;;;;;;;;
2022/11/11 12:56:29;;;;;;;;;;;;;;;;;;;;;
2022/11/11 13:00:05;;;;;;;10.65;5.70;;;11.80;99.90;;;;;;6178418;23;20341;-87
2022/11/11 13:03:24;;;;;;;15.15;6.28;;;11.90;99.90;;;;;;6064869;23;20062;-86
2022/11/11 13:06:47;;;;;;;13.02;6.35;;;11.80;99.90;;;;;;6056746;23;20015;-87
2022/11/11 13:10:25;;;;;;;11.25;6.00;;;11.80;99.90;;;;;;6064974;23;20054;-87
2022/11/11 13:14:06;;;;;;;;;;;;;;;;;;;;;
2022/11/11 13:16:46;;;;;;;11.70;5.97;;;11.80;99.90;;;;;;5869365;24;20032;-87
2022/11/11 13:19:40;;;;;;;10.98;5.65;;;11.80;99.90;;;;;;5874412;24;20028;-86
2022/11/11 13:22:46;;;;;;;13.27;6.55;;;11.80;99.90;;;;;;5874475;24;20025;-86
2022/11/11 13:26:19;;;;;;;11.43;6.25;;;11.80;99.90;;;;;;5897002;24;20045;-88
2022/11/11 13:29:38;;;;;;;14.23;5.88;;;11.80;99.90;;;;;;5823487;24;20105;-91
2022/11/11 13:32:10;;;;;;;10.82;5.03;;;11.90;99.90;;;;;;5821319;24;20027;-88
2022/11/11 13:34:47;;;;;;;13.27;6.07;;;11.50;99.90;;;;;;5874802;24;20022;-87
2022/11/11 13:37:39;;;;;;;14.55;7.00;;;11.70;99.90;;;;;;5874265;24;20033;-88
2022/11/11 13:40:44;;;;;;;11.30;5.28;;;11.70;99.90;;;;;;5871910;24;20066;-88
2022/11/11 13:44:28;;;;;;;14.15;7.53;;;11.70;99.90;;;;;;5896688;24;20032;-89
2022/11/11 13:47:49;;;;;;;18.30;7.85;;;11.70;99.90;;;;;;5901666;24;20429;-90
2022/11/11 13:50:45;;;;;;;13.25;6.20;;;11.60;99.90;;;;;;6011697;23;20026;-87
2022/11/11 13:53:52;;;;;;;13.55;6.63;;;11.60;99.90;;;;;;6093635;23;20022;-87
2022/11/11 13:57:04;;;;;;;16.25;7.40;;;12.00;99.90;;;;;;6068940;23;20037;-88
2022/11/11 14:00:01;;;;;;;14.88;7.07;;;11.50;99.90;;;;;;6093142;23;20026;-86
2022/11/11 14:03:26;;;;;;;;;;;;;;;;;;;;;
2022/11/11 14:06:47;;;;;;;12.52;6.72;;;11.40;99.90;;;;;;6081911;23;20021;-86
2022/11/11 14:10:07;;;;;;;18.15;7.63;;;11.40;99.90;;;;;;6132545;23;20158;-85
2022/11/11 14:13:20;;;;;;;12.77;6.63;;;11.40;99.90;;;;;;6158457;23;20510;-86
2022/11/11 14:16:17;;;;;;;14.40;7.25;;;11.40;99.90;;;;;;6183462;23;20021;-87
2022/11/11 14:19:17;;;;;;;16.85;7.43;;;11.50;99.90;;;;;;6157053;23;20056;-87
2022/11/11 14:22:39;;;;;;;14.48;6.32;;;11.50;99.90;;;;;;6159453;23;20048;-88
2022/11/11 14:25:27;;;;;;;17.38;8.40;;;11.40;99.90;;;;;;6067127;23;20110;-87
2022/11/11 14:27:59;;;;;;;14.63;7.30;;;11.30;99.90;;;;;;6066337;23;20516;-86
2022/11/11 14:30:39;;;;;;;16.42;7.13;;;11.90;99.90;;;;;;6066264;23;20049;-87
2022/11/11 14:33:25;;;;;;;17.80;7.68;;;11.80;99.90;;;;;;6066592;23;20019;-87
2022/11/11 14:36:25;;;;;;;17.05;7.45;;;11.40;99.90;;;;;;6066392;23;20019;-86
2022/11/11 14:39:12;;;;;;;14.25;7.10;;;11.40;99.90;;;;;;6065960;23;20023;-89
2022/11/11 14:41:44;;;;;;;15.65;7.90;;;11.90;99.90;;;;;;6042356;23;20335;-86
2022/11/11 14:44:25;;;;;;;15.95;7.88;;;11.40;99.90;;;;;;6042147;23;20034;-88
2022/11/11 14:47:07;;;;;;;16.70;8.38;;;11.50;99.90;;;;;;6066098;23;20382;-87
2022/11/11 14:49:54;;;;;;;12.60;6.53;;;11.50;99.90;;;;;;6042441;23;20034;-89
2022/11/11 14:52:28;;;;;;;12.52;6.47;;;11.50;99.90;;;;;;6041614;23;20470;-89
2022/11/11 14:55:10;;;;;;;12.27;6.45;;;11.50;99.90;;;;;;6065918;23;20019;-87
2022/11/11 14:57:44;;;;;;;16.42;7.88;;;11.40;99.90;;;;;;6046925;23;20090;-88
2022/11/11 15:00:24;;;;;;;15.20;7.22;;;11.40;99.90;;;;;;6185472;23;20017;-88
2022/11/11 15:03:14;;;;;;;13.70;7.40;;;11.90;99.90;;;;;;6186164;23;20028;-87
2022/11/11 15:05:58;;;;;;;12.68;7.13;;;11.50;99.90;;;;;;6185009;23;20067;-90
2022/11/11 15:08:53;;;;;;;13.13;7.38;;;11.40;99.90;;;;;;6185308;23;20471;-88
2022/11/11 15:11:52;;;;;;;12.55;6.30;;;11.40;99.90;;;;;;6185914;23;20135;-88
2022/11/11 15:14:28;;;;;;;14.82;6.65;;;11.40;99.90;;;;;;6185272;23;20399;-90
2022/11/11 15:17:25;;;;;;;14.43;7.18;;;11.40;99.90;;;;;;6187059;23;20059;-89
2022/11/11 15:20:16;;;;;;;16.20;8.15;;;11.40;99.90;;;;;;6070282;23;20026;-88
2022/11/11 15:23:21;;;;;;;14.85;7.20;;;11.40;99.90;;;;;;6095072;23;20022;-89
2022/11/11 15:26:12;;;;;;;14.68;7.50;;;11.40;99.90;;;;;;5958209;24;20068;-93
2022/11/11 15:29:40;;;;;;;16.52;8.13;;;11.40;99.90;;;;;;5957831;24;20030;-94
2022/11/11 15:32:42;;;;;;;;;;;;;;;;;;;;;
2022/11/11 15:38:38;;;;;;;15.90;8.73;;;11.40;99.90;;;;;;6216801;23;20064;-91
2022/11/11 15:41:19;;;;;;;19.70;8.88;;;11.40;99.90;;;;;;6186870;23;20035;-92
2022/11/11 15:47:47;;;;;;;22.73;9.10;;;11.40;99.90;;;;;;6216755;23;20035;-91
2022/11/11 15:50:34;;;;;;;11.25;7.00;;;11.80;99.90;;;;;;6216154;23;20031;-91
2022/11/11 15:53:29;;;;;;;18.15;7.95;;;11.30;99.90;;;;;;6189024;23;20381;-90
2022/11/11 15:56:00;;;;;;;14.60;7.38;;;11.40;99.90;;;;;;6221554;23;20016;-94
2022/11/11 15:58:39;;;;;;;14.43;6.82;;;11.40;99.90;;;;;;6198566;23;20027;-91
2022/11/11 16:01:23;;;;;;;12.75;6.57;;;11.40;99.90;;;;;;6190137;23;20083;-92
2022/11/11 16:04:32;;;;;;;14.48;7.43;;;11.30;99.90;;;;;;6187955;23;20503;-88
2022/11/11 16:07:41;;;;;;;12.48;6.18;;;11.40;99.90;;;;;;6213488;23;20466;-89
2022/11/11 16:10:59;;;;;;;15.05;7.80;;;11.30;99.90;;;;;;6049874;22;20030;-88
2022/11/11 16:13:43;;;;;;;13.05;7.13;;;11.50;99.90;;;;;;6064335;23;20022;-87
2022/11/11 16:16:34;;;;;;;16.85;7.53;;;11.30;99.90;;;;;;6041138;23;20019;-87
2022/11/11 16:19:30;;;;;;;14.23;6.88;;;11.30;99.90;;;;;;6065055;23;20029;-90
2022/11/11 16:22:27;;;;;;;15.50;6.60;;;11.30;99.90;;;;;;6065239;23;20052;-88
2022/11/11 16:24:57;;;;;;;12.65;7.55;;;11.30;99.90;;;;;;6065338;23;20114;-87
2022/11/11 16:27:33;;;;;;;14.77;6.88;;;11.40;99.90;;;;;;6065303;23;20082;-87
2022/11/11 16:30:39;;;;;;;15.65;7.65;;;11.30;99.90;;;;;;6041009;23;20338;-87
2022/11/11 16:33:44;;;;;;;13.80;6.68;;;11.30;99.90;;;;;;6031397;23;20062;-87
2022/11/11 16:37:05;;;;;;;17.02;8.55;;;11.40;99.90;;;;;;5975792;23;20022;-89
2022/11/11 16:40:03;;;;;;;15.70;8.35;;;11.40;99.90;;;;;;5928534;24;20024;-89
2022/11/11 16:43:29;;;;;;;14.85;7.57;;;11.90;99.90;;;;;;5928401;24;20024;-87
2022/11/11 16:50:15;;;;;;;16.25;7.78;;;11.40;99.90;;;;;;5924299;23;20103;-89
2022/11/11 16:53:24;;;;;;;15.52;8.35;;;11.40;99.90;;;;;;5901767;24;20064;-88
2022/11/11 16:56:44;;;;;;;14.60;7.57;;;11.40;99.90;;;;;;5923286;24;20017;-87
2022/11/11 16:59:48;;;;;;;21.55;9.35;;;11.20;99.90;;;;;;5924892;24;20021;-88
2022/11/11 17:02:56;;;;;;;;;;;;;;;;;;;;;
2022/11/11 17:05:59;;;;;;;17.08;8.23;;;11.40;99.90;;;;;;5897305;24;20461;-87
2022/11/11 17:12:06;;;;;;;13.40;7.43;;;11.40;99.90;;;;;;6182858;23;20083;-88
2022/11/11 17:14:47;;;;;;;15.85;8.63;;;11.40;99.90;;;;;;6185030;23;20032;-88
2022/11/11 17:17:45;;;;;;;18.92;9.82;;;11.40;99.90;;;;;;6184310;23;20013;-90
2022/11/11 17:21:04;;;;;;;;;;;;;;;;;;;;;
2022/11/11 17:24:51;;;;;;;18.02;8.30;;;11.40;99.90;;;;;;6103346;23;20049;-89
2022/11/11 17:28:26;;;;;;;;;;;;;;;;;;;;;
2022/11/11 18:29:22;;;;;;;16.40;7.90;;;11.40;99.90;;;;;;5916636;24;20418;-85
2022/11/11 18:32:46;;;;;;;16.02;7.82;;;11.50;99.90;;;;;;5930429;24;20357;-88
2022/11/11 18:39:14;;;;;;;17.48;7.80;;;11.40;99.90;;;;;;5953099;24;20056;-86
2022/11/11 18:42:29;;;;;;;15.93;7.18;;;11.30;99.90;;;;;;5953423;24;20112;-89
2022/11/11 18:45:50;;;;;;;;;;;;;;;;;;;;;
2022/11/11 18:49:03;;;;;;;17.13;7.45;;;11.40;99.90;;;;;;5953291;24;20035;-89
2022/11/11 18:51:33;;;;;;;17.30;7.80;;;11.40;99.90;;;;;;5930047;24;20028;-88
2022/11/11 18:54:09;;;;;;;19.77;8.02;;;11.40;99.90;;;;;;5930050;24;20066;-86
2022/11/11 18:56:43;;;;;;;15.50;6.57;;;11.40;99.90;;;;;;5953148;24;20115;-86
2022/11/11 18:59:22;;;;;;;10.23;5.53;;;11.30;99.90;;;;;;5949190;24;20065;-86
2022/11/11 19:01:49;;;;;;;13.05;6.10;;;11.40;99.90;;;;;;5969272;23;20352;-86
2022/11/11 19:04:29;;;;;;;9.88;4.93;;;11.40;99.90;;;;;;6154664;23;20452;-86
2022/11/11 19:07:02;;;;;;;10.23;4.97;;;11.40;99.90;;;;;;6155957;23;20025;-85
2022/11/11 19:09:31;;;;;;;13.55;6.00;;;11.40;99.90;;;;;;6131208;23;20074;-86
2022/11/11 19:11:58;;;;;;;11.90;5.90;;;11.30;99.90;;;;;;6156319;23;20018;-86
2022/11/11 19:14:26;;;;;;;8.77;4.38;;;11.40;99.90;;;;;;6129884;23;20017;-86
2022/11/11 19:16:54;;;;;;;14.88;6.70;;;11.20;99.90;;;;;;6129501;23;20022;-86
2022/11/11 19:19:30;;;;;;;15.68;7.72;;;11.30;99.90;;;;;;6129353;23;20326;-87
2022/11/11 19:22:06;;;;;;;17.30;7.22;;;11.40;99.90;;;;;;6131186;23;20013;-86
2022/11/11 19:24:49;;;;;;;10.20;5.70;;;11.40;99.90;;;;;;6184552;23;20032;-86
2022/11/11 19:27:23;;;;;;;11.15;5.65;;;11.40;99.90;;;;;;6185581;23;20332;-87
2022/11/11 19:30:30;;;;;;;13.55;5.43;;;11.40;99.90;;;;;;6184919;23;20313;-85
2022/11/11 19:33:51;;;;;;;12.30;5.95;;;11.30;99.90;;;;;;6160084;23;20238;-86
2022/11/11 19:37:18;;;;;;;;;;;;;;;;;;;;;
2022/11/11 19:40:54;;;;;;;18.10;6.80;;;11.30;99.90;;;;;;6186108;23;20056;-87
2022/11/11 19:43:42;;;;;;;10.27;5.50;;;11.30;99.90;;;;;;6182851;23;20353;-85
2022/11/11 19:46:58;;;;;;;12.43;5.45;;;11.30;99.90;;;;;;6185629;23;20056;-87
2022/11/11 19:50:26;;;;;;;12.82;6.05;;;11.20;99.90;;;;;;6185405;23;20021;-87
2022/11/11 19:53:58;;;;;;;;;;;;;;;;;;;;;
2022/11/11 19:57:32;;;;;;;;;;;;;;;;;;;;;
2022/11/11 20:00:46;;;;;;;;;;;;;;;;;;;;;
2022/11/11 20:08:06;;;;;;;9.02;4.80;;;10.80;99.90;;;;;;6118791;23;20030;-88
2022/11/11 20:11:28;;;;;;;;;;;;;;;;;;;;;
2022/11/11 20:14:05;;;;;;;7.75;3.63;;;11.20;99.90;;;;;;6094049;23;20541;-88
2022/11/11 20:16:34;;;;;;;5.93;3.42;;;10.40;99.90;;;;;;6098312;23;20576;-87
2022/11/11 20:19:00;;;;;;;7.50;3.38;;;10.20;99.90;;;;;;6098809;23;20029;-88
2022/11/11 20:21:35;;;;;;;5.30;2.97;;;10.30;99.90;;;;;;6098165;23;20060;-87
2022/11/11 20:24:12;;;;;;;8.90;4.05;;;10.20;99.90;;;;;;6097156;23;20113;-88
2022/11/11 20:26:42;;;;;;;6.53;3.45;;;10.10;99.90;;;;;;6123470;23;20385;-89
2022/11/11 20:29:13;;;;;;;8.60;4.97;;;10.00;99.90;;;;;;6097454;23;20190;-89
2022/11/11 20:31:52;;;;;;;10.57;5.15;;;10.00;99.90;;;;;;6097779;23;20018;-88
2022/11/11 20:34:29;;;;;;;6.72;3.75;;;9.90;99.90;;;;;;6098804;23;20380;-89
2022/11/11 20:37:05;;;;;;;9.38;4.13;;;9.80;99.90;;;;;;6122245;23;20021;-89
2022/11/11 20:39:49;;;;;;;8.77;3.88;;;9.70;99.90;;;;;;6185064;23;20083;-89
2022/11/11 20:42:33;;;;;;;9.25;4.35;;;9.60;99.90;;;;;;6182371;23;20028;-89
2022/11/11 20:45:26;;;;;;;;;;;;;;;;;;;;;
2022/11/11 20:48:17;;;;;;;6.47;3.58;;;9.40;99.90;;;;;;6185531;23;20071;-91
2022/11/11 20:50:48;;;;;;;6.45;3.95;;;9.30;99.90;;;;;;6183378;23;20140;-90
2022/11/11 20:53:20;;;;;;;7.28;3.55;;;9.20;99.90;;;;;;6185122;23;20079;-88
2022/11/11 20:55:47;;;;;;;7.32;3.80;;;9.10;99.90;;;;;;6183312;23;20017;-89
2022/11/11 20:58:54;;;;;;;7.57;3.65;;;9.10;99.90;;;;;;6157658;23;20047;-90
2022/11/11 21:02:14;;;;;;;;;;;;;;;;;;;;;
2022/11/11 21:05:46;;;;;;;;;;;;;;;;;;;;;
2022/11/11 21:09:24;;;;;;;8.63;3.58;;;8.80;99.90;;;;;;6181761;23;20064;-89
2022/11/11 21:12:23;;;;;;;6.20;2.97;;;9.00;99.90;;;;;;6065099;23;20349;-88
2022/11/11 21:15:25;;;;;;;7.22;3.08;;;9.00;99.90;;;;;;6037743;23;20034;-89
2022/11/11 21:18:27;;;;;;;7.88;3.60;;;9.30;99.90;;;;;;6016765;23;20022;-88
2022/11/11 21:25:37;;;;;;;;;;;;;;;;;;;;;
2022/11/11 21:29:12;;;;;;;5.55;3.15;;;8.80;99.90;;;;;;6006904;23;20370;-91
2022/11/11 21:32:24;;;;;;;5.72;3.17;;;9.20;99.90;;;;;;5981843;23;20537;-89
2022/11/11 21:35:44;;;;;;;6.97;3.47;;;8.70;99.90;;;;;;5957802;24;20127;-88
2022/11/11 21:42:46;;;;;;;6.65;2.75;;;8.70;99.90;;;;;;6007803;23;20037;-89
2022/11/11 21:49:50;;;;;;;5.20;2.80;;;8.70;99.90;;;;;;6009287;23;20420;-89